Terminal Aerodrome Forecast
Issued by NWS Lake Charles, LA

Home | Current Version | Previous Version | Text Only | Print | Product List | Glossary On
Versions: 1 2 3 4 5 6 7 8 9 10 11 12 13 14 15 16 17 18
000
FTUS44 KLCH 260802 AAC
TAFLCH
TAF AMD
KLCH 260802Z 2608/2706 16007KT P6SM FEW014 SCT030
      TEMPO 2610/2614 FEW008 BKN016
     FM261500 17010KT P6SM VCSH SCT014 BKN025
     FM261800 18011G16KT P6SM VCTS BKN025CB
      TEMPO 2621/2624 P6SM -TSRA BKN015CB=

USA.gov is the U.S. government's official web portal to all federal, state and local government web resources and services.